sensor_id;sensor_type;location;lat;lon;timestamp;temperature;humidity
62154;DHT22;48140;45.486;9.226;2023-03-11T04:59:46;12.00;54.90
62154;DHT22;48140;45.486;9.226;2023-03-11T05:02:12;12.00;55.60
62154;DHT22;48140;45.486;9.226;2023-03-11T05:04:43;12.00;55.80
62154;DHT22;48140;45.486;9.226;2023-03-11T05:07:09;11.90;56.50
62154;DHT22;48140;45.486;9.226;2023-03-11T05:09:42;11.80;57.10
62154;DHT22;48140;45.486;9.226;2023-03-11T05:12:10;11.80;57.10
62154;DHT22;48140;45.486;9.226;2023-03-11T05:14:38;11.90;56.40
62154;DHT22;48140;45.486;9.226;2023-03-11T05:17:04;11.90;55.80
62154;DHT22;48140;45.486;9.226;2023-03-11T05:19:29;12.20;56.40
62154;DHT22;48140;45.486;9.226;2023-03-11T05:21:57;11.90;56.60
62154;DHT22;48140;45.486;9.226;2023-03-11T05:24:23;11.80;57.30
62154;DHT22;48140;45.486;9.226;2023-03-11T05:26:51;11.80;57.80
62154;DHT22;48140;45.486;9.226;2023-03-11T05:29:23;11.90;57.90
62154;DHT22;48140;45.486;9.226;2023-03-11T05:31:51;11.80;57.50
62154;DHT22;48140;45.486;9.226;2023-03-11T05:34:18;11.80;57.60
62154;DHT22;48140;45.486;9.226;2023-03-11T05:36:44;11.70;57.60
62154;DHT22;48140;45.486;9.226;2023-03-11T05:39:10;11.80;56.80
62154;DHT22;48140;45.486;9.226;2023-03-11T05:51:58;11.90;54.70
62154;DHT22;48140;45.486;9.226;2023-03-11T05:54:28;11.90;55.70
62154;DHT22;48140;45.486;9.226;2023-03-11T05:56:59;12.00;55.60
62154;DHT22;48140;45.486;9.226;2023-03-11T05:59:26;12.00;55.90
62154;DHT22;48140;45.486;9.226;2023-03-11T06:07:02;12.00;55.40
62154;DHT22;48140;45.486;9.226;2023-03-11T06:09:28;12.00;55.60
62154;DHT22;48140;45.486;9.226;2023-03-11T06:11:54;12.00;54.90
62154;DHT22;48140;45.486;9.226;2023-03-11T06:16:55;12.20;54.30
62154;DHT22;48140;45.486;9.226;2023-03-11T06:19:20;12.20;53.50
62154;DHT22;48140;45.486;9.226;2023-03-11T06:21:46;12.70;54.80
62154;DHT22;48140;45.486;9.226;2023-03-11T06:24:12;12.20;55.80
62154;DHT22;48140;45.486;9.226;2023-03-11T06:37:13;12.20;55.80
62154;DHT22;48140;45.486;9.226;2023-03-11T07:04:50;13.20;51.20
62154;DHT22;48140;45.486;9.226;2023-03-11T07:07:16;13.30;50.30
62154;DHT22;48140;45.486;9.226;2023-03-11T07:09:42;13.30;50.30
62154;DHT22;48140;45.486;9.226;2023-03-11T07:12:08;13.70;50.50
62154;DHT22;48140;45.486;9.226;2023-03-11T07:14:33;13.40;50.20
62154;DHT22;48140;45.486;9.226;2023-03-11T07:16:59;13.40;50.40
62154;DHT22;48140;45.486;9.226;2023-03-11T07:19:24;13.50;50.20
62154;DHT22;48140;45.486;9.226;2023-03-11T07:21:50;13.60;50.10
62154;DHT22;48140;45.486;9.226;2023-03-11T07:24:16;13.70;49.50
62154;DHT22;48140;45.486;9.226;2023-03-11T07:26:41;13.70;49.50
62154;DHT22;48140;45.486;9.226;2023-03-11T07:29:08;13.90;48.20
62154;DHT22;48140;45.486;9.226;2023-03-11T07:31:36;14.00;48.30
62154;DHT22;48140;45.486;9.226;2023-03-11T07:34:04;14.00;48.20
62154;DHT22;48140;45.486;9.226;2023-03-11T07:36:35;14.00;47.90
62154;DHT22;48140;45.486;9.226;2023-03-11T07:39:04;14.00;48.30
62154;DHT22;48140;45.486;9.226;2023-03-11T07:41:31;14.10;48.20
62154;DHT22;48140;45.486;9.226;2023-03-11T07:43:59;14.10;48.30
62154;DHT22;48140;45.486;9.226;2023-03-11T07:46:26;14.10;48.00
62154;DHT22;48140;45.486;9.226;2023-03-11T07:48:52;14.20;48.10
62154;DHT22;48140;45.486;9.226;2023-03-11T07:51:21;14.30;47.80
62154;DHT22;48140;45.486;9.226;2023-03-11T07:53:47;14.40;47.50
62154;DHT22;48140;45.486;9.226;2023-03-11T07:56:15;14.50;47.40
62154;DHT22;48140;45.486;9.226;2023-03-11T07:58:41;14.60;47.20
62154;DHT22;48140;45.486;9.226;2023-03-11T08:01:24;14.80;47.10
62154;DHT22;48140;45.486;9.226;2023-03-11T08:03:52;14.80;46.60
62154;DHT22;48140;45.486;9.226;2023-03-11T08:06:28;15.00;46.20
62154;DHT22;48140;45.486;9.226;2023-03-11T08:08:56;15.00;45.90
62154;DHT22;48140;45.486;9.226;2023-03-11T08:11:22;15.10;45.80
62154;DHT22;48140;45.486;9.226;2023-03-11T08:13:48;15.40;45.60
62154;DHT22;48140;45.486;9.226;2023-03-11T08:16:17;15.30;45.00
62154;DHT22;48140;45.486;9.226;2023-03-11T08:18:45;15.40;45.00
62154;DHT22;48140;45.486;9.226;2023-03-11T08:21:13;15.60;44.60
62154;DHT22;48140;45.486;9.226;2023-03-11T08:23:39;15.70;44.20
62154;DHT22;48140;45.486;9.226;2023-03-11T08:26:07;15.80;43.90
62154;DHT22;48140;45.486;9.226;2023-03-11T08:28:34;15.90;43.20
62154;DHT22;48140;45.486;9.226;2023-03-11T08:30:59;16.10;42.70
62154;DHT22;48140;45.486;9.226;2023-03-11T08:33:25;16.20;42.20
62154;DHT22;48140;45.486;9.226;2023-03-11T08:35:51;16.30;41.90
62154;DHT22;48140;45.486;9.226;2023-03-11T08:38:16;16.50;41.50
62154;DHT22;48140;45.486;9.226;2023-03-11T08:40:42;16.70;41.00
62154;DHT22;48140;45.486;9.226;2023-03-11T08:43:11;16.90;40.40
62154;DHT22;48140;45.486;9.226;2023-03-11T08:45:39;17.00;39.80
62154;DHT22;48140;45.486;9.226;2023-03-11T08:48:05;17.10;39.70
62154;DHT22;48140;45.486;9.226;2023-03-11T08:50:31;17.30;39.40
62154;DHT22;48140;45.486;9.226;2023-03-11T08:52:56;17.50;38.30
62154;DHT22;48140;45.486;9.226;2023-03-11T08:55:25;17.70;38.30
62154;DHT22;48140;45.486;9.226;2023-03-11T08:57:53;17.80;37.30
62154;DHT22;48140;45.486;9.226;2023-03-11T09:00:19;18.00;37.30
62154;DHT22;48140;45.486;9.226;2023-03-11T09:02:45;18.30;36.70
62154;DHT22;48140;45.486;9.226;2023-03-11T11:31:51;25.30;23.60
62154;DHT22;48140;45.486;9.226;2023-03-11T11:36:53;24.70;24.10
62154;DHT22;48140;45.486;9.226;2023-03-11T12:29:01;26.40;23.20
62154;DHT22;48140;45.486;9.226;2023-03-11T12:31:35;26.40;23.00
62154;DHT22;48140;45.486;9.226;2023-03-11T12:34:05;26.10;23.30
62154;DHT22;48140;45.486;9.226;2023-03-11T12:36:37;26.50;23.20
62154;DHT22;48140;45.486;9.226;2023-03-11T12:39:22;26.50;22.90
62154;DHT22;48140;45.486;9.226;2023-03-11T12:44:35;27.00;22.70
62154;DHT22;48140;45.486;9.226;2023-03-11T12:47:15;27.20;23.50
62154;DHT22;48140;45.486;9.226;2023-03-11T12:49:44;27.50;22.20
62154;DHT22;48140;45.486;9.226;2023-03-11T12:54:37;27.70;21.80
62154;DHT22;48140;45.486;9.226;2023-03-11T13:07:35;27.10;22.70
62154;DHT22;48140;45.486;9.226;2023-03-11T13:12:45;27.90;22.30
62154;DHT22;48140;45.486;9.226;2023-03-11T13:25:42;28.10;21.60
62154;DHT22;48140;45.486;9.226;2023-03-11T13:28:47;27.90;21.70
62154;DHT22;48140;45.486;9.226;2023-03-11T13:31:50;27.60;21.60
62154;DHT22;48140;45.486;9.226;2023-03-11T13:42:57;28.20;21.40
62154;DHT22;48140;45.486;9.226;2023-03-11T13:45:36;27.90;21.20
62154;DHT22;48140;45.486;9.226;2023-03-11T13:51:23;28.70;21.20
62154;DHT22;48140;45.486;9.226;2023-03-11T13:54:00;29.20;20.70
62154;DHT22;48140;45.486;9.226;2023-03-11T13:56:38;29.20;20.60
62154;DHT22;48140;45.486;9.226;2023-03-11T13:59:26;29.50;20.80
62154;DHT22;48140;45.486;9.226;2023-03-11T14:01:55;29.90;20.80
62154;DHT22;48140;45.486;9.226;2023-03-11T14:04:29;30.40;20.00
62154;DHT22;48140;45.486;9.226;2023-03-11T14:06:56;30.00;19.70
62154;DHT22;48140;45.486;9.226;2023-03-11T14:09:23;29.30;20.50
62154;DHT22;48140;45.486;9.226;2023-03-11T14:11:52;29.80;20.20
62154;DHT22;48140;45.486;9.226;2023-03-11T14:14:42;29.80;20.00
62154;DHT22;48140;45.486;9.226;2023-03-11T14:17:14;29.70;20.20
62154;DHT22;48140;45.486;9.226;2023-03-11T14:19:41;29.60;20.20
62154;DHT22;48140;45.486;9.226;2023-03-11T14:22:08;29.30;20.40
62154;DHT22;48140;45.486;9.226;2023-03-11T14:24:34;29.10;20.50
62154;DHT22;48140;45.486;9.226;2023-03-11T14:27:02;29.20;20.60
62154;DHT22;48140;45.486;9.226;2023-03-11T14:29:35;29.40;20.40
62154;DHT22;48140;45.486;9.226;2023-03-11T14:32:16;29.40;20.60
62154;DHT22;48140;45.486;9.226;2023-03-11T14:34:48;29.30;20.10
62154;DHT22;48140;45.486;9.226;2023-03-11T14:37:29;29.70;19.80
62154;DHT22;48140;45.486;9.226;2023-03-11T14:39:55;29.20;20.20
62154;DHT22;48140;45.486;9.226;2023-03-11T14:42:33;29.60;20.30
62154;DHT22;48140;45.486;9.226;2023-03-11T14:45:15;29.50;19.90
62154;DHT22;48140;45.486;9.226;2023-03-11T14:48:05;30.10;19.50
62154;DHT22;48140;45.486;9.226;2023-03-11T14:50:34;29.80;19.40
62154;DHT22;48140;45.486;9.226;2023-03-11T14:53:24;29.60;20.00
62154;DHT22;48140;45.486;9.226;2023-03-11T14:55:53;29.50;19.80
62154;DHT22;48140;45.486;9.226;2023-03-11T14:58:21;29.10;20.00
62154;DHT22;48140;45.486;9.226;2023-03-11T15:01:05;29.10;20.10
62154;DHT22;48140;45.486;9.226;2023-03-11T15:03:44;29.60;19.80
62154;DHT22;48140;45.486;9.226;2023-03-11T15:06:16;29.80;20.50
62154;DHT22;48140;45.486;9.226;2023-03-11T15:08:47;30.20;19.30
62154;DHT22;48140;45.486;9.226;2023-03-11T15:13:42;30.50;18.90
62154;DHT22;48140;45.486;9.226;2023-03-11T15:16:40;30.10;19.30
62154;DHT22;48140;45.486;9.226;2023-03-11T15:21:52;29.70;19.50
62154;DHT22;48140;45.486;9.226;2023-03-11T15:24:30;29.80;19.50
62154;DHT22;48140;45.486;9.226;2023-03-11T15:27:00;29.40;19.60
62154;DHT22;48140;45.486;9.226;2023-03-11T15:29:27;29.50;19.80
62154;DHT22;48140;45.486;9.226;2023-03-11T15:31:55;30.00;19.30
62154;DHT22;48140;45.486;9.226;2023-03-11T15:34:32;30.10;19.10
62154;DHT22;48140;45.486;9.226;2023-03-11T15:37:02;30.30;19.40
62154;DHT22;48140;45.486;9.226;2023-03-11T15:42:02;30.40;19.30
62154;DHT22;48140;45.486;9.226;2023-03-11T15:44:37;30.50;18.70
62154;DHT22;48140;45.486;9.226;2023-03-11T15:47:11;30.80;18.60
62154;DHT22;48140;45.486;9.226;2023-03-11T15:49:37;30.40;18.80
62154;DHT22;48140;45.486;9.226;2023-03-11T15:52:03;30.00;19.20
62154;DHT22;48140;45.486;9.226;2023-03-11T15:54:29;29.90;19.10
62154;DHT22;48140;45.486;9.226;2023-03-11T15:56:56;29.30;19.50
62154;DHT22;48140;45.486;9.226;2023-03-11T15:59:23;29.20;19.80
62154;DHT22;48140;45.486;9.226;2023-03-11T16:01:49;29.20;19.90
62154;DHT22;48140;45.486;9.226;2023-03-11T16:04:19;29.80;19.70
62154;DHT22;48140;45.486;9.226;2023-03-11T16:06:46;30.60;19.40
62154;DHT22;48140;45.486;9.226;2023-03-11T16:11:47;29.40;19.50
62154;DHT22;48140;45.486;9.226;2023-03-11T16:14:18;29.90;19.40
62154;DHT22;48140;45.486;9.226;2023-03-11T16:16:46;30.20;18.90
62154;DHT22;48140;45.486;9.226;2023-03-11T16:19:12;29.30;19.30
62154;DHT22;48140;45.486;9.226;2023-03-11T16:21:43;29.70;19.10
62154;DHT22;48140;45.486;9.226;2023-03-11T16:24:19;29.90;19.10
62154;DHT22;48140;45.486;9.226;2023-03-11T16:26:46;30.00;18.90
62154;DHT22;48140;45.486;9.226;2023-03-11T16:29:11;29.70;18.80
62154;DHT22;48140;45.486;9.226;2023-03-11T16:31:37;28.60;19.50
62154;DHT22;48140;45.486;9.226;2023-03-11T16:36:38;28.20;19.90
62154;DHT22;48140;45.486;9.226;2023-03-11T16:39:03;27.80;20.10
62154;DHT22;48140;45.486;9.226;2023-03-11T16:41:39;27.60;20.40
62154;DHT22;48140;45.486;9.226;2023-03-11T16:44:06;27.60;20.40
62154;DHT22;48140;45.486;9.226;2023-03-11T16:46:32;27.90;20.20
62154;DHT22;48140;45.486;9.226;2023-03-11T16:48:57;27.80;20.20
62154;DHT22;48140;45.486;9.226;2023-03-11T16:51:24;27.30;20.50
62154;DHT22;48140;45.486;9.226;2023-03-11T16:53:49;26.60;20.90
62154;DHT22;48140;45.486;9.226;2023-03-11T17:01:27;24.10;23.10
62154;DHT22;48140;45.486;9.226;2023-03-11T17:09:03;22.70;25.60
62154;DHT22;48140;45.486;9.226;2023-03-11T17:11:28;22.50;25.00
62154;DHT22;48140;45.486;9.226;2023-03-11T17:13:55;22.30;25.20
62154;DHT22;48140;45.486;9.226;2023-03-11T17:18:56;22.00;25.70
62154;DHT22;48140;45.486;9.226;2023-03-11T18:02:52;20.60;28.00
62154;DHT22;48140;45.486;9.226;2023-03-11T18:16:33;20.30;28.20
62154;DHT22;48140;45.486;9.226;2023-03-11T18:18:59;20.10;28.50
62154;DHT22;48140;45.486;9.226;2023-03-11T18:21:27;20.10;28.50
62154;DHT22;48140;45.486;9.226;2023-03-11T18:23:55;20.10;28.60
62154;DHT22;48140;45.486;9.226;2023-03-11T18:26:22;20.00;28.70
62154;DHT22;48140;45.486;9.226;2023-03-11T18:28:52;19.90;28.80
62154;DHT22;48140;45.486;9.226;2023-03-11T18:31:19;19.80;28.80
62154;DHT22;48140;45.486;9.226;2023-03-11T18:33:54;19.80;29.00
62154;DHT22;48140;45.486;9.226;2023-03-11T18:36:28;19.80;29.00
62154;DHT22;48140;45.486;9.226;2023-03-11T18:38:56;19.80;29.00
62154;DHT22;48140;45.486;9.226;2023-03-11T18:41:23;19.80;29.10
62154;DHT22;48140;45.486;9.226;2023-03-11T18:43:56;19.70;29.10
62154;DHT22;48140;45.486;9.226;2023-03-11T18:46:23;19.70;29.20
62154;DHT22;48140;45.486;9.226;2023-03-11T18:48:52;19.60;29.30
62154;DHT22;48140;45.486;9.226;2023-03-11T18:51:17;19.70;29.60
62154;DHT22;48140;45.486;9.226;2023-03-11T18:53:43;19.60;29.60
62154;DHT22;48140;45.486;9.226;2023-03-11T18:56:14;19.60;29.70
62154;DHT22;48140;45.486;9.226;2023-03-11T18:58:41;19.50;29.80
62154;DHT22;48140;45.486;9.226;2023-03-11T19:03:33;19.50;30.00
62154;DHT22;48140;45.486;9.226;2023-03-11T19:05:59;19.40;30.00
62154;DHT22;48140;45.486;9.226;2023-03-11T19:08:25;19.30;30.20
62154;DHT22;48140;45.486;9.226;2023-03-11T19:10:52;19.20;30.20
62154;DHT22;48140;45.486;9.226;2023-03-11T19:15:53;19.10;30.80
62154;DHT22;48140;45.486;9.226;2023-03-11T19:18:18;19.00;30.60
62154;DHT22;48140;45.486;9.226;2023-03-11T19:20:44;19.00;30.70
62154;DHT22;48140;45.486;9.226;2023-03-11T19:23:19;19.00;30.80
62154;DHT22;48140;45.486;9.226;2023-03-11T19:25:45;19.00;30.90
62154;DHT22;48140;45.486;9.226;2023-03-11T20:20:04;17.90;33.40
62154;DHT22;48140;45.486;9.226;2023-03-11T20:35:27;17.70;33.80
62154;DHT22;48140;45.486;9.226;2023-03-11T20:37:53;17.70;33.90
62154;DHT22;48140;45.486;9.226;2023-03-11T20:53:15;17.60;33.80
62154;DHT22;48140;45.486;9.226;2023-03-11T21:18:59;17.20;34.50
62154;DHT22;48140;45.486;9.226;2023-03-11T21:21:29;17.60;34.80
62154;DHT22;48140;45.486;9.226;2023-03-11T21:23:55;17.10;34.80
62154;DHT22;48140;45.486;9.226;2023-03-11T21:26:21;17.20;34.80
62154;DHT22;48140;45.486;9.226;2023-03-11T21:36:33;17.10;35.10
62154;DHT22;48140;45.486;9.226;2023-03-11T21:38:58;17.00;35.20
62154;DHT22;48140;45.486;9.226;2023-03-11T21:41:25;16.90;35.20
62154;DHT22;48140;45.486;9.226;2023-03-11T21:43:53;16.90;35.40
62154;DHT22;48140;45.486;9.226;2023-03-11T21:51:30;16.70;35.70
62154;DHT22;48140;45.486;9.226;2023-03-11T21:59:07;16.70;37.30
62154;DHT22;48140;45.486;9.226;2023-03-11T22:01:33;16.70;37.90
62154;DHT22;48140;45.486;9.226;2023-03-11T22:03:59;16.40;38.90
62154;DHT22;48140;45.486;9.226;2023-03-11T22:09:02;16.10;56.30
62154;DHT22;48140;45.486;9.226;2023-03-11T22:11:28;15.90;63.10
62154;DHT22;48140;45.486;9.226;2023-03-11T22:13:54;15.60;66.20
62154;DHT22;48140;45.486;9.226;2023-03-11T22:16:23;15.60;70.50
62154;DHT22;48140;45.486;9.226;2023-03-11T22:18:49;15.40;73.30
62154;DHT22;48140;45.486;9.226;2023-03-11T22:21:16;15.20;76.50
62154;DHT22;48140;45.486;9.226;2023-03-11T22:23:42;15.00;79.80
62154;DHT22;48140;45.486;9.226;2023-03-11T22:26:09;14.90;81.10
62154;DHT22;48140;45.486;9.226;2023-03-11T22:28:35;15.10;82.80
62154;DHT22;48140;45.486;9.226;2023-03-11T22:31:09;14.70;84.50
62154;DHT22;48140;45.486;9.226;2023-03-11T22:36:10;14.40;88.50
62154;DHT22;48140;45.486;9.226;2023-03-11T22:38:36;15.40;90.20
62154;DHT22;48140;45.486;9.226;2023-03-11T22:41:05;14.30;90.30
62154;DHT22;48140;45.486;9.226;2023-03-11T22:43:33;14.20;91.10
62154;DHT22;48140;45.486;9.226;2023-03-11T22:45:59;14.10;92.00
62154;DHT22;48140;45.486;9.226;2023-03-11T22:48:24;14.10;91.90
62154;DHT22;48140;45.486;9.226;2023-03-11T22:50:50;14.10;91.90
62154;DHT22;48140;45.486;9.226;2023-03-11T22:53:15;14.10;92.20
62154;DHT22;48140;45.486;9.226;2023-03-11T22:55:43;14.10;92.50
62154;DHT22;48140;45.486;9.226;2023-03-11T22:58:09;14.10;92.50
62154;DHT22;48140;45.486;9.226;2023-03-11T23:00:35;14.00;92.80
62154;DHT22;48140;45.486;9.226;2023-03-11T23:03:01;14.00;93.20
62154;DHT22;48140;45.486;9.226;2023-03-11T23:05:27;14.00;93.40
62154;DHT22;48140;45.486;9.226;2023-03-11T23:07:52;13.90;93.70
62154;DHT22;48140;45.486;9.226;2023-03-11T23:10:19;14.00;94.20
62154;DHT22;48140;45.486;9.226;2023-03-11T23:12:45;13.90;93.80
62154;DHT22;48140;45.486;9.226;2023-03-11T23:15:14;14.00;93.90
62154;DHT22;48140;45.486;9.226;2023-03-11T23:17:41;13.90;94.20
62154;DHT22;48140;45.486;9.226;2023-03-11T23:20:09;13.90;94.30
62154;DHT22;48140;45.486;9.226;2023-03-11T23:22:37;13.80;94.50
62154;DHT22;48140;45.486;9.226;2023-03-11T23:25:05;13.70;94.70
62154;DHT22;48140;45.486;9.226;2023-03-11T23:27:31;13.70;94.60
62154;DHT22;48140;45.486;9.226;2023-03-11T23:29:57;13.70;94.70
62154;DHT22;48140;45.486;9.226;2023-03-11T23:32:23;13.60;94.70
62154;DHT22;48140;45.486;9.226;2023-03-11T23:34:48;13.60;94.80
62154;DHT22;48140;45.486;9.226;2023-03-11T23:37:14;13.60;94.70
62154;DHT22;48140;45.486;9.226;2023-03-11T23:39:39;13.60;94.60
62154;DHT22;48140;45.486;9.226;2023-03-11T23:42:05;13.50;94.70
62154;DHT22;48140;45.486;9.226;2023-03-11T23:44:31;13.40;95.00
62154;DHT22;48140;45.486;9.226;2023-03-11T23:46:56;13.30;94.90
62154;DHT22;48140;45.486;9.226;2023-03-11T23:49:22;13.30;94.90
62154;DHT22;48140;45.486;9.226;2023-03-11T23:51:48;13.20;95.00
62154;DHT22;48140;45.486;9.226;2023-03-11T23:54:14;13.20;94.70
62154;DHT22;48140;45.486;9.226;2023-03-11T23:56:39;13.20;94.60
62154;DHT22;48140;45.486;9.226;2023-03-11T23:59:05;13.20;94.20
